sensor_id;sensor_type;location;lat;lon;timestamp;temperature;humidity
57108;DHT22;42987;52.916;6.542;2022-10-31T00:01:38;12.60;99.90
57108;DHT22;42987;52.916;6.542;2022-10-31T00:04:04;12.60;99.90
57108;DHT22;42987;52.916;6.542;2022-10-31T00:06:30;12.50;99.90
57108;DHT22;42987;52.916;6.542;2022-10-31T00:08:59;12.50;99.90
57108;DHT22;42987;52.916;6.542;2022-10-31T00:11:26;12.50;99.90
57108;DHT22;42987;52.916;6.542;2022-10-31T00:13:51;12.50;99.90
57108;DHT22;42987;52.916;6.542;2022-10-31T00:16:20;12.50;99.90
57108;DHT22;42987;52.916;6.542;2022-10-31T00:18:57;12.40;99.90
57108;DHT22;42987;52.916;6.542;2022-10-31T00:21:24;12.40;99.90
57108;DHT22;42987;52.916;6.542;2022-10-31T00:23:50;12.30;99.90
57108;DHT22;42987;52.916;6.542;2022-10-31T00:26:16;12.30;99.90
57108;DHT22;42987;52.916;6.542;2022-10-31T00:28:45;12.30;99.90
57108;DHT22;42987;52.916;6.542;2022-10-31T00:31:12;12.20;99.90
57108;DHT22;42987;52.916;6.542;2022-10-31T00:33:39;12.20;99.90
57108;DHT22;42987;52.916;6.542;2022-10-31T00:36:06;12.20;99.90
57108;DHT22;42987;52.916;6.542;2022-10-31T00:38:33;12.10;99.90
57108;DHT22;42987;52.916;6.542;2022-10-31T00:41:02;12.10;99.90
57108;DHT22;42987;52.916;6.542;2022-10-31T00:43:27;12.10;99.90
57108;DHT22;42987;52.916;6.542;2022-10-31T00:45:53;12.10;99.90
57108;DHT22;42987;52.916;6.542;2022-10-31T00:48:19;12.10;99.90
57108;DHT22;42987;52.916;6.542;2022-10-31T00:50:45;12.00;99.90
57108;DHT22;42987;52.916;6.542;2022-10-31T00:53:10;12.10;99.90
57108;DHT22;42987;52.916;6.542;2022-10-31T00:55:36;12.10;99.90
57108;DHT22;42987;52.916;6.542;2022-10-31T00:58:02;12.10;99.90
57108;DHT22;42987;52.916;6.542;2022-10-31T01:00:28;12.10;99.90
57108;DHT22;42987;52.916;6.542;2022-10-31T01:02:54;12.00;99.90
57108;DHT22;42987;52.916;6.542;2022-10-31T01:05:20;12.00;99.90
57108;DHT22;42987;52.916;6.542;2022-10-31T01:07:46;12.00;99.90
57108;DHT22;42987;52.916;6.542;2022-10-31T01:10:12;11.90;99.90
57108;DHT22;42987;52.916;6.542;2022-10-31T01:12:43;11.90;99.90
57108;DHT22;42987;52.916;6.542;2022-10-31T01:15:10;11.80;99.90
57108;DHT22;42987;52.916;6.542;2022-10-31T01:17:36;11.80;99.90
57108;DHT22;42987;52.916;6.542;2022-10-31T01:20:04;11.80;99.90
57108;DHT22;42987;52.916;6.542;2022-10-31T01:22:30;11.80;99.90
57108;DHT22;42987;52.916;6.542;2022-10-31T01:24:56;11.70;99.90
57108;DHT22;42987;52.916;6.542;2022-10-31T01:27:22;11.70;99.90
57108;DHT22;42987;52.916;6.542;2022-10-31T01:29:47;11.70;99.90
57108;DHT22;42987;52.916;6.542;2022-10-31T01:32:13;11.70;99.90
57108;DHT22;42987;52.916;6.542;2022-10-31T01:34:39;11.70;99.90
57108;DHT22;42987;52.916;6.542;2022-10-31T01:37:05;11.70;99.90
57108;DHT22;42987;52.916;6.542;2022-10-31T01:39:30;11.70;99.90
57108;DHT22;42987;52.916;6.542;2022-10-31T01:41:56;11.70;99.90
57108;DHT22;42987;52.916;6.542;2022-10-31T01:49:37;11.80;99.90
57108;DHT22;42987;52.916;6.542;2022-10-31T01:54:57;11.80;99.90
57108;DHT22;42987;52.916;6.542;2022-10-31T01:57:25;11.70;99.90
57108;DHT22;42987;52.916;6.542;2022-10-31T01:59:54;11.70;99.90
57108;DHT22;42987;52.916;6.542;2022-10-31T02:02:23;11.70;99.90
57108;DHT22;42987;52.916;6.542;2022-10-31T02:04:49;11.70;99.90
57108;DHT22;42987;52.916;6.542;2022-10-31T02:07:18;11.70;99.90
57108;DHT22;42987;52.916;6.542;2022-10-31T02:09:47;11.70;99.90
57108;DHT22;42987;52.916;6.542;2022-10-31T02:12:14;11.70;99.90
57108;DHT22;42987;52.916;6.542;2022-10-31T02:14:40;11.70;99.90
57108;DHT22;42987;52.916;6.542;2022-10-31T02:17:07;11.70;99.90
57108;DHT22;42987;52.916;6.542;2022-10-31T02:19:55;11.70;99.90
57108;DHT22;42987;52.916;6.542;2022-10-31T02:23:17;11.70;99.90
57108;DHT22;42987;52.916;6.542;2022-10-31T02:34:31;11.60;99.90
57108;DHT22;42987;52.916;6.542;2022-10-31T02:37:01;11.60;99.90
57108;DHT22;42987;52.916;6.542;2022-10-31T02:45:29;11.50;99.90
57108;DHT22;42987;52.916;6.542;2022-10-31T02:48:00;11.50;99.90
57108;DHT22;42987;52.916;6.542;2022-10-31T02:50:33;11.50;99.90
57108;DHT22;42987;52.916;6.542;2022-10-31T02:53:01;11.40;99.90
57108;DHT22;42987;52.916;6.542;2022-10-31T02:57:57;11.40;99.90
57108;DHT22;42987;52.916;6.542;2022-10-31T03:00:24;11.40;99.90
57108;DHT22;42987;52.916;6.542;2022-10-31T03:10:56;11.30;99.90
57108;DHT22;42987;52.916;6.542;2022-10-31T03:16:09;11.10;99.90
57108;DHT22;42987;52.916;6.542;2022-10-31T03:19:11;11.10;99.90
57108;DHT22;42987;52.916;6.542;2022-10-31T03:24:13;11.00;99.90
57108;DHT22;42987;52.916;6.542;2022-10-31T03:26:47;11.00;99.90
57108;DHT22;42987;52.916;6.542;2022-10-31T03:29:16;10.90;99.90
57108;DHT22;42987;52.916;6.542;2022-10-31T03:34:36;10.90;99.90
57108;DHT22;42987;52.916;6.542;2022-10-31T03:37:05;10.80;99.90
57108;DHT22;42987;52.916;6.542;2022-10-31T03:39:32;10.80;99.90
57108;DHT22;42987;52.916;6.542;2022-10-31T03:42:06;10.80;99.90
57108;DHT22;42987;52.916;6.542;2022-10-31T03:44:33;10.80;99.90
57108;DHT22;42987;52.916;6.542;2022-10-31T03:47:00;10.80;99.90
57108;DHT22;42987;52.916;6.542;2022-10-31T03:49:27;10.70;99.90
57108;DHT22;42987;52.916;6.542;2022-10-31T03:52:06;10.70;99.90
57108;DHT22;42987;52.916;6.542;2022-10-31T03:54:42;10.70;99.90
57108;DHT22;42987;52.916;6.542;2022-10-31T03:57:13;10.60;99.90
57108;DHT22;42987;52.916;6.542;2022-10-31T03:59:46;10.60;99.90
57108;DHT22;42987;52.916;6.542;2022-10-31T04:02:20;10.50;99.90
57108;DHT22;42987;52.916;6.542;2022-10-31T04:04:48;10.60;99.90
57108;DHT22;42987;52.916;6.542;2022-10-31T04:07:15;10.60;99.90
57108;DHT22;42987;52.916;6.542;2022-10-31T04:09:44;10.50;99.90
57108;DHT22;42987;52.916;6.542;2022-10-31T04:12:12;10.50;99.90
57108;DHT22;42987;52.916;6.542;2022-10-31T04:14:41;10.50;99.90
57108;DHT22;42987;52.916;6.542;2022-10-31T04:17:14;10.40;99.90
57108;DHT22;42987;52.916;6.542;2022-10-31T04:19:41;10.40;99.90
57108;DHT22;42987;52.916;6.542;2022-10-31T04:22:07;10.30;99.90
57108;DHT22;42987;52.916;6.542;2022-10-31T04:24:33;10.30;99.90
57108;DHT22;42987;52.916;6.542;2022-10-31T04:26:59;10.30;99.90
57108;DHT22;42987;52.916;6.542;2022-10-31T04:29:24;10.20;99.90
57108;DHT22;42987;52.916;6.542;2022-10-31T04:31:50;10.20;99.90
57108;DHT22;42987;52.916;6.542;2022-10-31T04:34:16;10.10;99.90
57108;DHT22;42987;52.916;6.542;2022-10-31T04:36:42;10.10;99.90
57108;DHT22;42987;52.916;6.542;2022-10-31T04:39:08;10.10;99.90
57108;DHT22;42987;52.916;6.542;2022-10-31T04:41:33;10.10;99.90
57108;DHT22;42987;52.916;6.542;2022-10-31T04:43:59;10.00;99.90
57108;DHT22;42987;52.916;6.542;2022-10-31T04:46:25;10.00;99.90
57108;DHT22;42987;52.916;6.542;2022-10-31T04:48:51;9.90;99.90
57108;DHT22;42987;52.916;6.542;2022-10-31T04:51:17;9.90;99.90
57108;DHT22;42987;52.916;6.542;2022-10-31T04:53:42;9.90;99.90
57108;DHT22;42987;52.916;6.542;2022-10-31T04:56:08;9.90;99.90
57108;DHT22;42987;52.916;6.542;2022-10-31T04:58:34;9.90;99.90
57108;DHT22;42987;52.916;6.542;2022-10-31T05:01:00;9.90;99.90
57108;DHT22;42987;52.916;6.542;2022-10-31T05:03:25;9.90;99.90
57108;DHT22;42987;52.916;6.542;2022-10-31T05:05:51;9.90;99.90
57108;DHT22;42987;52.916;6.542;2022-10-31T05:08:17;9.90;99.90
57108;DHT22;42987;52.916;6.542;2022-10-31T05:10:42;9.90;99.90
57108;DHT22;42987;52.916;6.542;2022-10-31T05:13:08;9.90;99.90
57108;DHT22;42987;52.916;6.542;2022-10-31T05:15:34;9.80;99.90
57108;DHT22;42987;52.916;6.542;2022-10-31T05:18:00;9.80;99.90
57108;DHT22;42987;52.916;6.542;2022-10-31T05:20:29;9.70;99.90
57108;DHT22;42987;52.916;6.542;2022-10-31T05:22:56;9.60;99.90
57108;DHT22;42987;52.916;6.542;2022-10-31T05:25:25;9.50;99.90
57108;DHT22;42987;52.916;6.542;2022-10-31T05:27:52;9.40;99.90
57108;DHT22;42987;52.916;6.542;2022-10-31T05:30:29;9.40;99.90
57108;DHT22;42987;52.916;6.542;2022-10-31T05:32:55;9.40;99.90
57108;DHT22;42987;52.916;6.542;2022-10-31T05:35:27;9.40;99.90
57108;DHT22;42987;52.916;6.542;2022-10-31T05:37:53;9.40;99.90
57108;DHT22;42987;52.916;6.542;2022-10-31T05:40:19;9.40;99.90
57108;DHT22;42987;52.916;6.542;2022-10-31T05:42:51;9.40;99.90
57108;DHT22;42987;52.916;6.542;2022-10-31T05:45:18;9.30;99.90
57108;DHT22;42987;52.916;6.542;2022-10-31T05:47:57;9.40;99.90
57108;DHT22;42987;52.916;6.542;2022-10-31T05:50:25;9.40;99.90
57108;DHT22;42987;52.916;6.542;2022-10-31T05:55:21;9.40;99.90
57108;DHT22;42987;52.916;6.542;2022-10-31T05:57:47;9.40;99.90
57108;DHT22;42987;52.916;6.542;2022-10-31T06:00:13;9.40;99.90
57108;DHT22;42987;52.916;6.542;2022-10-31T06:02:38;9.40;99.90
57108;DHT22;42987;52.916;6.542;2022-10-31T06:05:04;9.30;99.90
57108;DHT22;42987;52.916;6.542;2022-10-31T06:07:34;9.40;99.90
57108;DHT22;42987;52.916;6.542;2022-10-31T06:10:01;9.40;99.90
57108;DHT22;42987;52.916;6.542;2022-10-31T06:12:26;9.40;99.90
57108;DHT22;42987;52.916;6.542;2022-10-31T06:14:52;9.40;99.90
57108;DHT22;42987;52.916;6.542;2022-10-31T06:17:18;9.40;99.90
57108;DHT22;42987;52.916;6.542;2022-10-31T06:19:44;9.40;99.90
57108;DHT22;42987;52.916;6.542;2022-10-31T06:22:09;9.40;99.90
57108;DHT22;42987;52.916;6.542;2022-10-31T06:24:40;9.40;99.90
57108;DHT22;42987;52.916;6.542;2022-10-31T06:27:06;9.30;99.90
57108;DHT22;42987;52.916;6.542;2022-10-31T06:29:32;9.30;99.90
57108;DHT22;42987;52.916;6.542;2022-10-31T06:31:57;9.30;99.90
57108;DHT22;42987;52.916;6.542;2022-10-31T06:34:26;9.30;99.90
57108;DHT22;42987;52.916;6.542;2022-10-31T06:36:53;9.30;99.90
57108;DHT22;42987;52.916;6.542;2022-10-31T06:39:18;9.30;99.90
57108;DHT22;42987;52.916;6.542;2022-10-31T06:41:47;9.30;99.90
57108;DHT22;42987;52.916;6.542;2022-10-31T06:44:13;9.30;99.90
57108;DHT22;42987;52.916;6.542;2022-10-31T06:46:39;9.30;99.90
57108;DHT22;42987;52.916;6.542;2022-10-31T06:49:04;9.40;99.90
57108;DHT22;42987;52.916;6.542;2022-10-31T06:51:30;9.40;99.90
57108;DHT22;42987;52.916;6.542;2022-10-31T06:53:56;9.40;99.90
57108;DHT22;42987;52.916;6.542;2022-10-31T06:56:25;9.40;99.90
57108;DHT22;42987;52.916;6.542;2022-10-31T06:58:50;9.40;99.90
57108;DHT22;42987;52.916;6.542;2022-10-31T07:01:16;9.40;99.90
57108;DHT22;42987;52.916;6.542;2022-10-31T07:03:42;9.40;99.90
57108;DHT22;42987;52.916;6.542;2022-10-31T07:06:08;9.40;99.90
57108;DHT22;42987;52.916;6.542;2022-10-31T07:08:33;9.40;99.90
57108;DHT22;42987;52.916;6.542;2022-10-31T07:10:59;9.40;99.90
57108;DHT22;42987;52.916;6.542;2022-10-31T07:13:25;9.40;99.90
57108;DHT22;42987;52.916;6.542;2022-10-31T07:15:58;9.40;99.90
57108;DHT22;42987;52.916;6.542;2022-10-31T07:18:25;9.40;99.90
57108;DHT22;42987;52.916;6.542;2022-10-31T07:20:51;9.50;99.90
57108;DHT22;42987;52.916;6.542;2022-10-31T07:23:17;9.50;99.90
57108;DHT22;42987;52.916;6.542;2022-10-31T07:25:43;9.50;99.90
57108;DHT22;42987;52.916;6.542;2022-10-31T07:28:10;9.50;99.90
57108;DHT22;42987;52.916;6.542;2022-10-31T07:30:37;9.50;99.90
57108;DHT22;42987;52.916;6.542;2022-10-31T07:33:06;9.50;99.90
57108;DHT22;42987;52.916;6.542;2022-10-31T07:35:32;9.50;99.90
57108;DHT22;42987;52.916;6.542;2022-10-31T07:38:11;9.50;99.90
57108;DHT22;42987;52.916;6.542;2022-10-31T07:40:37;9.50;99.90
57108;DHT22;42987;52.916;6.542;2022-10-31T07:43:03;9.50;99.90
57108;DHT22;42987;52.916;6.542;2022-10-31T07:45:29;9.50;99.90
57108;DHT22;42987;52.916;6.542;2022-10-31T07:47:54;9.60;99.90
57108;DHT22;42987;52.916;6.542;2022-10-31T07:50:26;9.60;99.90
57108;DHT22;42987;52.916;6.542;2022-10-31T07:53:06;9.70;99.90
57108;DHT22;42987;52.916;6.542;2022-10-31T07:55:33;9.70;99.90
57108;DHT22;42987;52.916;6.542;2022-10-31T07:58:07;9.70;99.90
57108;DHT22;42987;52.916;6.542;2022-10-31T08:00:34;9.80;99.90
57108;DHT22;42987;52.916;6.542;2022-10-31T08:03:01;9.80;99.90
57108;DHT22;42987;52.916;6.542;2022-10-31T08:05:29;10.00;99.90
57108;DHT22;42987;52.916;6.542;2022-10-31T08:08:02;10.00;99.90
57108;DHT22;42987;52.916;6.542;2022-10-31T08:10:31;10.10;99.90
57108;DHT22;42987;52.916;6.542;2022-10-31T08:13:05;10.00;99.90
57108;DHT22;42987;52.916;6.542;2022-10-31T08:15:31;10.10;99.90
57108;DHT22;42987;52.916;6.542;2022-10-31T08:17:59;10.10;99.90
57108;DHT22;42987;52.916;6.542;2022-10-31T08:20:25;10.10;99.90
57108;DHT22;42987;52.916;6.542;2022-10-31T08:22:59;10.20;99.90
57108;DHT22;42987;52.916;6.542;2022-10-31T08:25:30;10.20;99.90
57108;DHT22;42987;52.916;6.542;2022-10-31T08:28:05;10.30;99.90
57108;DHT22;42987;52.916;6.542;2022-10-31T08:30:33;10.40;99.90
57108;DHT22;42987;52.916;6.542;2022-10-31T08:33:15;10.50;99.90
57108;DHT22;42987;52.916;6.542;2022-10-31T08:35:42;10.60;99.90
57108;DHT22;42987;52.916;6.542;2022-10-31T08:38:12;10.70;99.90
57108;DHT22;42987;52.916;6.542;2022-10-31T08:40:38;10.80;99.90
57108;DHT22;42987;52.916;6.542;2022-10-31T08:43:06;10.80;99.90
57108;DHT22;42987;52.916;6.542;2022-10-31T08:45:34;10.90;99.90
57108;DHT22;42987;52.916;6.542;2022-10-31T08:48:02;11.00;99.90
57108;DHT22;42987;52.916;6.542;2022-10-31T08:50:29;11.00;99.90
57108;DHT22;42987;52.916;6.542;2022-10-31T08:53:00;11.10;99.90
57108;DHT22;42987;52.916;6.542;2022-10-31T08:55:26;11.10;99.90
57108;DHT22;42987;52.916;6.542;2022-10-31T08:57:56;11.20;99.90
57108;DHT22;42987;52.916;6.542;2022-10-31T09:00:22;11.30;99.90
57108;DHT22;42987;52.916;6.542;2022-10-31T09:02:56;11.30;99.90
57108;DHT22;42987;52.916;6.542;2022-10-31T09:05:22;11.30;99.90
57108;DHT22;42987;52.916;6.542;2022-10-31T09:07:48;11.40;99.90
57108;DHT22;42987;52.916;6.542;2022-10-31T09:10:14;11.40;99.90
57108;DHT22;42987;52.916;6.542;2022-10-31T09:12:40;11.50;99.90
57108;DHT22;42987;52.916;6.542;2022-10-31T09:15:07;11.50;99.90
57108;DHT22;42987;52.916;6.542;2022-10-31T09:17:33;11.50;99.90
57108;DHT22;42987;52.916;6.542;2022-10-31T09:20:02;11.50;99.90
57108;DHT22;42987;52.916;6.542;2022-10-31T09:22:31;11.60;99.90
57108;DHT22;42987;52.916;6.542;2022-10-31T09:24:57;11.60;99.90
57108;DHT22;42987;52.916;6.542;2022-10-31T09:27:23;11.70;99.90
57108;DHT22;42987;52.916;6.542;2022-10-31T09:29:49;11.70;99.90
57108;DHT22;42987;52.916;6.542;2022-10-31T09:32:14;11.80;99.90
57108;DHT22;42987;52.916;6.542;2022-10-31T09:34:40;11.80;99.90
57108;DHT22;42987;52.916;6.542;2022-10-31T09:37:06;11.80;99.90
57108;DHT22;42987;52.916;6.542;2022-10-31T09:39:32;11.90;99.90
57108;DHT22;42987;52.916;6.542;2022-10-31T09:47:49;11.90;99.90
57108;DHT22;42987;52.916;6.542;2022-10-31T09:50:21;11.90;99.90
57108;DHT22;42987;52.916;6.542;2022-10-31T09:53:04;12.00;99.90
57108;DHT22;42987;52.916;6.542;2022-10-31T09:55:44;12.00;99.90
57108;DHT22;42987;52.916;6.542;2022-10-31T09:58:29;12.10;99.90
57108;DHT22;42987;52.916;6.542;2022-10-31T10:00:59;12.10;99.90
57108;DHT22;42987;52.916;6.542;2022-10-31T10:03:34;12.10;99.90
57108;DHT22;42987;52.916;6.542;2022-10-31T10:06:16;12.20;99.90
57108;DHT22;42987;52.916;6.542;2022-10-31T10:08:43;12.20;99.90
57108;DHT22;42987;52.916;6.542;2022-10-31T10:19:44;12.40;99.90
57108;DHT22;42987;52.916;6.542;2022-10-31T10:22:26;12.50;99.90
57108;DHT22;42987;52.916;6.542;2022-10-31T10:25:13;12.50;99.90
57108;DHT22;42987;52.916;6.542;2022-10-31T10:28:08;12.60;99.90
57108;DHT22;42987;52.916;6.542;2022-10-31T10:33:20;12.70;99.90
57108;DHT22;42987;52.916;6.542;2022-10-31T10:35:52;12.80;99.90
57108;DHT22;42987;52.916;6.542;2022-10-31T10:41:10;12.90;99.90
57108;DHT22;42987;52.916;6.542;2022-10-31T10:43:37;13.00;99.90
57108;DHT22;42987;52.916;6.542;2022-10-31T10:56:41;13.40;99.90
57108;DHT22;42987;52.916;6.542;2022-10-31T10:59:12;13.50;99.90
57108;DHT22;42987;52.916;6.542;2022-10-31T11:01:40;13.60;99.90
57108;DHT22;42987;52.916;6.542;2022-10-31T11:04:30;13.70;99.90
57108;DHT22;42987;52.916;6.542;2022-10-31T11:09:25;13.90;99.90
57108;DHT22;42987;52.916;6.542;2022-10-31T11:11:51;13.90;99.90
57108;DHT22;42987;52.916;6.542;2022-10-31T11:14:18;14.00;99.90
57108;DHT22;42987;52.916;6.542;2022-10-31T11:16:50;14.10;99.90
57108;DHT22;42987;52.916;6.542;2022-10-31T11:19:23;14.20;99.90
57108;DHT22;42987;52.916;6.542;2022-10-31T11:21:50;14.30;99.90
57108;DHT22;42987;52.916;6.542;2022-10-31T11:24:19;14.30;99.90
57108;DHT22;42987;52.916;6.542;2022-10-31T11:26:47;14.40;99.90
57108;DHT22;42987;52.916;6.542;2022-10-31T11:29:24;14.40;99.90
57108;DHT22;42987;52.916;6.542;2022-10-31T11:31:55;14.50;99.90
57108;DHT22;42987;52.916;6.542;2022-10-31T11:34:42;14.50;99.90
57108;DHT22;42987;52.916;6.542;2022-10-31T11:39:45;14.60;99.90
57108;DHT22;42987;52.916;6.542;2022-10-31T11:42:14;14.60;99.90
57108;DHT22;42987;52.916;6.542;2022-10-31T11:44:42;14.60;99.90
57108;DHT22;42987;52.916;6.542;2022-10-31T11:47:15;14.60;99.90
57108;DHT22;42987;52.916;6.542;2022-10-31T11:49:46;14.70;99.90
57108;DHT22;42987;52.916;6.542;2022-10-31T11:57:49;14.80;99.90
57108;DHT22;42987;52.916;6.542;2022-10-31T12:00:24;14.80;99.90
57108;DHT22;42987;52.916;6.542;2022-10-31T12:03:26;14.80;99.90
57108;DHT22;42987;52.916;6.542;2022-10-31T12:06:18;14.80;99.90
57108;DHT22;42987;52.916;6.542;2022-10-31T12:08:46;14.90;99.90
57108;DHT22;42987;52.916;6.542;2022-10-31T12:17:26;15.00;99.90
57108;DHT22;42987;52.916;6.542;2022-10-31T12:20:21;15.00;99.90
57108;DHT22;42987;52.916;6.542;2022-10-31T12:37:03;15.20;99.90
57108;DHT22;42987;52.916;6.542;2022-10-31T12:42:53;15.30;99.90
57108;DHT22;42987;52.916;6.542;2022-10-31T12:45:35;15.40;99.90
57108;DHT22;42987;52.916;6.542;2022-10-31T12:58:49;15.40;99.90
57108;DHT22;42987;52.916;6.542;2022-10-31T13:01:23;15.40;99.90
57108;DHT22;42987;52.916;6.542;2022-10-31T13:07:31;15.40;99.90
57108;DHT22;42987;52.916;6.542;2022-10-31T13:10:08;15.40;99.90
57108;DHT22;42987;52.916;6.542;2022-10-31T13:12:36;15.40;99.90
57108;DHT22;42987;52.916;6.542;2022-10-31T13:15:16;15.50;99.90
57108;DHT22;42987;52.916;6.542;2022-10-31T13:17:46;15.60;99.90
57108;DHT22;42987;52.916;6.542;2022-10-31T13:22:46;15.70;99.90
57108;DHT22;42987;52.916;6.542;2022-10-31T13:25:30;15.80;99.90
57108;DHT22;42987;52.916;6.542;2022-10-31T13:28:01;15.80;99.90
57108;DHT22;42987;52.916;6.542;2022-10-31T13:30:38;15.90;99.90
57108;DHT22;42987;52.916;6.542;2022-10-31T13:35:56;15.80;99.90
57108;DHT22;42987;52.916;6.542;2022-10-31T13:38:52;15.80;99.90
57108;DHT22;42987;52.916;6.542;2022-10-31T13:44:21;15.80;99.90
57108;DHT22;42987;52.916;6.542;2022-10-31T13:46:52;15.80;99.90
57108;DHT22;42987;52.916;6.542;2022-10-31T13:54:36;15.80;99.90
57108;DHT22;42987;52.916;6.542;2022-10-31T13:57:16;15.80;99.90
57108;DHT22;42987;52.916;6.542;2022-10-31T13:59:56;15.80;99.90
57108;DHT22;42987;52.916;6.542;2022-10-31T14:02:46;15.70;99.90
57108;DHT22;42987;52.916;6.542;2022-10-31T14:05:23;15.70;99.90
57108;DHT22;42987;52.916;6.542;2022-10-31T14:07:52;15.70;99.90
57108;DHT22;42987;52.916;6.542;2022-10-31T14:13:06;15.70;99.90
57108;DHT22;42987;52.916;6.542;2022-10-31T14:15:33;15.70;99.90
57108;DHT22;42987;52.916;6.542;2022-10-31T14:18:06;15.60;99.90
57108;DHT22;42987;52.916;6.542;2022-10-31T14:20:39;15.60;99.90
57108;DHT22;42987;52.916;6.542;2022-10-31T14:23:35;15.60;99.90
57108;DHT22;42987;52.916;6.542;2022-10-31T14:31:51;15.70;99.90
57108;DHT22;42987;52.916;6.542;2022-10-31T14:34:30;15.70;99.90
57108;DHT22;42987;52.916;6.542;2022-10-31T14:50:53;15.70;99.90
57108;DHT22;42987;52.916;6.542;2022-10-31T14:53:26;15.60;99.90
57108;DHT22;42987;52.916;6.542;2022-10-31T14:55:54;15.60;99.90
57108;DHT22;42987;52.916;6.542;2022-10-31T14:58:28;15.50;99.90
57108;DHT22;42987;52.916;6.542;2022-10-31T15:01:00;15.50;99.90
57108;DHT22;42987;52.916;6.542;2022-10-31T15:03:38;15.40;99.90
57108;DHT22;42987;52.916;6.542;2022-10-31T15:06:24;15.40;99.90
57108;DHT22;42987;52.916;6.542;2022-10-31T15:08:53;15.40;99.90
57108;DHT22;42987;52.916;6.542;2022-10-31T15:11:22;15.40;99.90
57108;DHT22;42987;52.916;6.542;2022-10-31T15:13:53;15.30;99.90
57108;DHT22;42987;52.916;6.542;2022-10-31T15:16:31;15.30;99.90
57108;DHT22;42987;52.916;6.542;2022-10-31T15:19:00;15.30;99.90
57108;DHT22;42987;52.916;6.542;2022-10-31T15:21:31;15.30;99.90
57108;DHT22;42987;52.916;6.542;2022-10-31T15:24:02;15.30;99.90
57108;DHT22;42987;52.916;6.542;2022-10-31T15:26:43;15.20;99.90
57108;DHT22;42987;52.916;6.542;2022-10-31T15:29:14;15.20;99.90
57108;DHT22;42987;52.916;6.542;2022-10-31T15:31:53;15.20;99.90
57108;DHT22;42987;52.916;6.542;2022-10-31T15:36:49;15.10;99.90
57108;DHT22;42987;52.916;6.542;2022-10-31T15:39:18;15.00;99.90
57108;DHT22;42987;52.916;6.542;2022-10-31T15:41:58;15.00;99.90
57108;DHT22;42987;52.916;6.542;2022-10-31T15:44:25;15.00;99.90
57108;DHT22;42987;52.916;6.542;2022-10-31T15:47:00;15.00;99.90
57108;DHT22;42987;52.916;6.542;2022-10-31T15:49:36;14.90;99.90
57108;DHT22;42987;52.916;6.542;2022-10-31T15:52:11;14.90;99.90
57108;DHT22;42987;52.916;6.542;2022-10-31T15:54:46;14.80;99.90
57108;DHT22;42987;52.916;6.542;2022-10-31T15:57:13;14.80;99.90
57108;DHT22;42987;52.916;6.542;2022-10-31T15:59:41;14.80;99.90
57108;DHT22;42987;52.916;6.542;2022-10-31T16:02:11;14.70;99.90
57108;DHT22;42987;52.916;6.542;2022-10-31T16:04:37;14.70;99.90
57108;DHT22;42987;52.916;6.542;2022-10-31T16:07:17;14.70;99.90
57108;DHT22;42987;52.916;6.542;2022-10-31T16:10:01;14.70;99.90
57108;DHT22;42987;52.916;6.542;2022-10-31T16:12:44;14.60;99.90
57108;DHT22;42987;52.916;6.542;2022-10-31T16:15:15;14.60;99.90
57108;DHT22;42987;52.916;6.542;2022-10-31T16:17:46;14.50;99.90
57108;DHT22;42987;52.916;6.542;2022-10-31T16:20:40;14.50;99.90
57108;DHT22;42987;52.916;6.542;2022-10-31T16:23:05;14.50;99.90
57108;DHT22;42987;52.916;6.542;2022-10-31T16:25:38;14.40;99.90
57108;DHT22;42987;52.916;6.542;2022-10-31T16:28:19;14.40;99.90
57108;DHT22;42987;52.916;6.542;2022-10-31T16:30:56;14.40;99.90
57108;DHT22;42987;52.916;6.542;2022-10-31T16:33:34;14.40;99.90
57108;DHT22;42987;52.916;6.542;2022-10-31T16:36:35;14.40;99.90
57108;DHT22;42987;52.916;6.542;2022-10-31T16:39:04;14.40;99.90
57108;DHT22;42987;52.916;6.542;2022-10-31T16:41:30;14.30;99.90
57108;DHT22;42987;52.916;6.542;2022-10-31T16:43:57;14.30;99.90
57108;DHT22;42987;52.916;6.542;2022-10-31T16:46:25;14.30;99.90
57108;DHT22;42987;52.916;6.542;2022-10-31T16:48:51;14.30;99.90
57108;DHT22;42987;52.916;6.542;2022-10-31T16:51:17;14.30;99.90
57108;DHT22;42987;52.916;6.542;2022-10-31T16:53:46;14.30;99.90
57108;DHT22;42987;52.916;6.542;2022-10-31T16:56:16;14.30;99.90
57108;DHT22;42987;52.916;6.542;2022-10-31T16:58:43;14.30;99.90
57108;DHT22;42987;52.916;6.542;2022-10-31T17:01:11;14.30;99.90
57108;DHT22;42987;52.916;6.542;2022-10-31T17:03:38;14.30;99.90
57108;DHT22;42987;52.916;6.542;2022-10-31T17:06:04;14.30;99.90
57108;DHT22;42987;52.916;6.542;2022-10-31T17:08:32;14.30;99.90
57108;DHT22;42987;52.916;6.542;2022-10-31T17:10:59;14.30;99.90
57108;DHT22;42987;52.916;6.542;2022-10-31T17:13:30;14.30;99.90
57108;DHT22;42987;52.916;6.542;2022-10-31T17:15:59;14.30;99.90
57108;DHT22;42987;52.916;6.542;2022-10-31T17:18:26;14.30;99.90
57108;DHT22;42987;52.916;6.542;2022-10-31T17:21:04;14.30;99.90
57108;DHT22;42987;52.916;6.542;2022-10-31T17:23:33;14.30;99.90
57108;DHT22;42987;52.916;6.542;2022-10-31T17:25:59;14.30;99.90
57108;DHT22;42987;52.916;6.542;2022-10-31T17:28:25;14.30;99.90
57108;DHT22;42987;52.916;6.542;2022-10-31T17:30:54;14.30;99.90
57108;DHT22;42987;52.916;6.542;2022-10-31T17:33:20;14.30;99.90
57108;DHT22;42987;52.916;6.542;2022-10-31T17:35:46;14.30;99.90
57108;DHT22;42987;52.916;6.542;2022-10-31T17:38:12;14.30;99.90
57108;DHT22;42987;52.916;6.542;2022-10-31T17:40:39;14.30;99.90
57108;DHT22;42987;52.916;6.542;2022-10-31T17:43:07;14.30;99.90
57108;DHT22;42987;52.916;6.542;2022-10-31T17:45:33;14.30;99.90
57108;DHT22;42987;52.916;6.542;2022-10-31T17:47:59;14.30;99.90
57108;DHT22;42987;52.916;6.542;2022-10-31T17:50:25;14.30;99.90
57108;DHT22;42987;52.916;6.542;2022-10-31T17:52:52;14.30;99.90
57108;DHT22;42987;52.916;6.542;2022-10-31T17:55:18;14.30;99.90
57108;DHT22;42987;52.916;6.542;2022-10-31T17:57:44;14.30;99.90
57108;DHT22;42987;52.916;6.542;2022-10-31T18:00:13;14.30;99.90
57108;DHT22;42987;52.916;6.542;2022-10-31T18:02:39;14.30;99.90
57108;DHT22;42987;52.916;6.542;2022-10-31T18:05:06;14.30;99.90
57108;DHT22;42987;52.916;6.542;2022-10-31T18:07:32;14.30;99.90
57108;DHT22;42987;52.916;6.542;2022-10-31T18:09:58;14.30;99.90
57108;DHT22;42987;52.916;6.542;2022-10-31T18:12:26;14.30;99.90
57108;DHT22;42987;52.916;6.542;2022-10-31T18:14:52;14.30;99.90
57108;DHT22;42987;52.916;6.542;2022-10-31T18:17:18;14.30;99.90
57108;DHT22;42987;52.916;6.542;2022-10-31T18:19:44;14.30;99.90
57108;DHT22;42987;52.916;6.542;2022-10-31T18:22:13;14.30;99.90
57108;DHT22;42987;52.916;6.542;2022-10-31T18:24:42;14.30;99.90
57108;DHT22;42987;52.916;6.542;2022-10-31T18:27:08;14.30;99.90
57108;DHT22;42987;52.916;6.542;2022-10-31T18:29:34;14.30;99.90
57108;DHT22;42987;52.916;6.542;2022-10-31T18:31:59;14.30;99.90
57108;DHT22;42987;52.916;6.542;2022-10-31T18:34:25;14.30;99.90